createdAt,value
2023-01-20T00:00:31.395Z,79.36
2023-01-20T00:03:55.662Z,79.37
2023-01-20T00:06:58.882Z,79.35
2023-01-20T00:10:02.468Z,79.33
2023-01-20T00:13:05.692Z,79.27
2023-01-20T00:16:10.989Z,79.22
2023-01-20T00:19:15.057Z,79.17
2023-01-20T00:22:18.301Z,79.16
2023-01-20T00:25:21.497Z,79.16
2023-01-20T00:28:24.753Z,79.11
2023-01-20T00:31:30.479Z,79.11
2023-01-20T00:34:33.717Z,79.11
2023-01-20T00:37:36.989Z,79.08
2023-01-20T00:40:40.191Z,79.03
2023-01-20T00:43:44.173Z,78.97
2023-01-20T00:46:47.387Z,78.90
2023-01-20T00:49:50.801Z,78.80
2023-01-20T00:52:54.006Z,78.74
2023-01-20T00:55:57.309Z,78.71
2023-01-20T00:59:00.529Z,78.71
2023-01-20T01:02:04.543Z,78.71
2023-01-20T01:05:08.309Z,78.71
2023-01-20T01:08:11.884Z,78.77
2023-01-20T01:11:15.116Z,78.85
2023-01-20T01:14:18.602Z,78.91
2023-01-20T01:17:23.811Z,78.91
2023-01-20T01:20:28.306Z,78.94
2023-01-20T01:23:31.953Z,78.96
2023-01-20T01:26:35.266Z,78.96
2023-01-20T01:29:38.421Z,78.98
2023-01-20T01:32:41.683Z,79.01
2023-01-20T01:35:54.068Z,79.00
2023-01-20T01:38:59.147Z,79.00
2023-01-20T01:42:02.652Z,79.01
2023-01-20T01:45:12.411Z,79.01
2023-01-20T01:48:16.631Z,79.00
2023-01-20T01:51:25.554Z,78.98
2023-01-20T01:54:36.637Z,78.97
2023-01-20T01:57:40.002Z,78.99
2023-01-20T02:00:43.910Z,78.98
2023-01-20T02:04:00.075Z,78.95
2023-01-20T02:07:12.485Z,78.91
2023-01-20T02:10:16.168Z,78.79
2023-01-20T02:13:19.670Z,78.73
2023-01-20T02:16:41.056Z,78.57
2023-01-20T02:20:10.748Z,78.41
2023-01-20T02:23:32.674Z,78.33
2023-01-20T02:26:35.917Z,78.28
2023-01-20T02:30:16.765Z,78.22
2023-01-20T02:33:33.275Z,78.11
2023-01-20T02:36:51.618Z,78.03
2023-01-20T02:40:23.101Z,78.00
2023-01-20T02:43:56.687Z,77.97
2023-01-20T02:47:14.322Z,77.89
2023-01-20T02:50:21.650Z,77.81
2023-01-20T02:53:28.671Z,77.74
2023-01-20T02:56:34.357Z,77.68
2023-01-20T02:59:42.422Z,77.56
2023-01-20T03:02:48.455Z,77.49
2023-01-20T03:06:00.327Z,77.41
2023-01-20T03:09:09.080Z,77.33
2023-01-20T03:12:22.457Z,77.23
2023-01-20T03:15:35.488Z,77.07
2023-01-20T03:18:40.275Z,77.05
2023-01-20T03:21:44.139Z,77.07
2023-01-20T03:24:48.571Z,77.08
2023-01-20T03:27:51.778Z,77.08
2023-01-20T03:30:56.929Z,77.05
2023-01-20T03:34:03.919Z,77.13
2023-01-20T03:37:08.378Z,77.16
2023-01-20T03:40:13.059Z,77.22
2023-01-20T03:43:27.187Z,77.23
2023-01-20T03:46:48.103Z,77.25
2023-01-20T03:50:16.724Z,77.27
2023-01-20T03:53:37.551Z,77.27
2023-01-20T03:57:04.114Z,77.25
2023-01-20T04:00:12.032Z,77.20
2023-01-20T04:03:20.252Z,77.16
2023-01-20T04:06:27.178Z,77.19
2023-01-20T04:09:34.204Z,77.20
2023-01-20T04:12:37.504Z,77.20
2023-01-20T04:15:44.534Z,77.18
2023-01-20T04:18:50.509Z,77.17
2023-01-20T04:22:01.197Z,77.14
2023-01-20T04:25:30.736Z,77.09
2023-01-20T04:28:33.984Z,77.06
2023-01-20T04:31:37.755Z,77.02
2023-01-20T04:34:41.031Z,77.00
2023-01-20T04:37:44.658Z,76.95
2023-01-20T04:40:47.869Z,76.92
2023-01-20T04:43:51.136Z,76.87
2023-01-20T04:46:58.494Z,76.81
2023-01-20T04:50:01.759Z,76.75
2023-01-20T04:53:05.087Z,76.69
2023-01-20T04:56:15.736Z,76.66
2023-01-20T04:59:19.222Z,76.67
2023-01-20T05:02:22.505Z,76.68
2023-01-20T05:05:25.897Z,76.71
2023-01-20T05:08:29.259Z,76.69
2023-01-20T05:11:32.529Z,76.68
2023-01-20T05:14:35.692Z,76.68
2023-01-20T05:17:39.125Z,76.68
2023-01-20T05:20:45.777Z,76.70
2023-01-20T05:23:48.997Z,76.72
2023-01-20T05:26:52.176Z,76.76
2023-01-20T05:29:55.360Z,76.80
2023-01-20T05:32:58.613Z,76.75
2023-01-20T05:36:05.750Z,76.74
2023-01-20T05:39:09.036Z,76.70
2023-01-20T05:42:12.262Z,76.67
2023-01-20T05:45:15.790Z,76.58
2023-01-20T05:48:19.358Z,76.51
2023-01-20T05:51:22.701Z,76.49
2023-01-20T05:54:26.414Z,76.48
2023-01-20T05:57:29.649Z,76.51
2023-01-20T06:00:33.163Z,76.49
2023-01-20T06:03:37.189Z,76.46
2023-01-20T06:06:40.428Z,76.47
2023-01-20T06:09:43.657Z,76.39
2023-01-20T06:12:53.274Z,76.29
2023-01-20T06:15:57.189Z,76.21
2023-01-20T06:19:00.439Z,76.19
2023-01-20T06:22:03.807Z,76.19
2023-01-20T06:25:07.339Z,76.19
2023-01-20T06:28:11.268Z,76.22
2023-01-20T06:31:16.887Z,76.21
2023-01-20T06:34:20.205Z,76.20
2023-01-20T06:37:23.470Z,76.22
2023-01-20T06:40:26.790Z,76.22
2023-01-20T06:43:30.871Z,76.24
2023-01-20T06:46:34.080Z,76.26
2023-01-20T06:49:37.290Z,76.28
2023-01-20T06:52:40.502Z,76.38
2023-01-20T06:55:43.680Z,76.40
2023-01-20T06:58:46.971Z,76.39
2023-01-20T07:01:50.399Z,76.38
2023-01-20T07:04:53.916Z,76.43
2023-01-20T07:07:57.103Z,76.47
2023-01-20T07:11:00.366Z,76.53
2023-01-20T07:14:05.421Z,76.59
2023-01-20T07:17:12.423Z,76.63
2023-01-20T07:20:15.854Z,76.69
2023-01-20T07:23:19.054Z,76.73
2023-01-20T07:26:26.402Z,76.72
2023-01-20T07:29:29.610Z,76.71
2023-01-20T07:32:32.850Z,76.71
2023-01-20T07:35:36.055Z,76.71
2023-01-20T07:38:39.718Z,76.69
2023-01-20T07:41:43.907Z,76.69
2023-01-20T07:44:47.249Z,76.73
2023-01-20T07:47:50.465Z,76.69
2023-01-20T07:51:05.882Z,76.68
2023-01-20T07:54:12.054Z,76.72
2023-01-20T07:57:15.426Z,76.77
2023-01-20T08:00:19.557Z,76.75
2023-01-20T08:03:25.958Z,76.77
2023-01-20T08:06:31.067Z,76.74
2023-01-20T08:09:34.437Z,76.70
2023-01-20T08:12:37.723Z,76.69
2023-01-20T08:15:40.948Z,76.66
2023-01-20T08:18:46.734Z,76.67
2023-01-20T08:21:50.109Z,76.75
2023-01-20T08:24:54.533Z,76.81
2023-01-20T08:27:57.892Z,76.79
2023-01-20T08:31:13.075Z,76.79
2023-01-20T08:34:18.731Z,76.78
2023-01-20T08:37:22.095Z,76.79
2023-01-20T08:40:25.365Z,76.82
2023-01-20T08:43:29.141Z,76.90
2023-01-20T08:46:32.978Z,76.97
2023-01-20T08:49:36.271Z,76.95
2023-01-20T08:52:40.188Z,76.97
2023-01-20T08:55:43.472Z,77.03
2023-01-20T08:58:47.024Z,77.07
2023-01-20T09:01:50.348Z,77.06
2023-01-20T09:04:54.578Z,77.04
2023-01-20T09:07:57.803Z,77.03
2023-01-20T09:11:13.560Z,77.02
2023-01-20T09:14:18.425Z,76.99
2023-01-20T09:17:21.679Z,76.94
2023-01-20T09:20:27.176Z,76.98
2023-01-20T09:23:30.341Z,77.00
2023-01-20T09:26:38.586Z,77.00
2023-01-20T09:29:41.880Z,77.08
2023-01-20T09:32:46.104Z,77.01
2023-01-20T09:35:55.413Z,76.95
2023-01-20T09:39:18.893Z,76.97
2023-01-20T09:42:49.692Z,76.97
2023-01-20T09:46:00.939Z,77.01
2023-01-20T09:49:46.832Z,77.04
2023-01-20T09:53:03.847Z,77.10
2023-01-20T09:56:37.970Z,77.09
2023-01-20T09:59:49.156Z,77.13
2023-01-20T10:02:59.676Z,77.13
2023-01-20T10:06:11.471Z,77.14
2023-01-20T10:09:17.976Z,77.08
2023-01-20T10:12:48.063Z,77.06
2023-01-20T10:15:55.296Z,77.09
2023-01-20T10:19:27.335Z,77.11
2023-01-20T10:22:53.654Z,77.04
2023-01-20T10:26:09.683Z,77.06
2023-01-20T10:29:52.015Z,77.09
2023-01-20T10:33:05.541Z,77.10
2023-01-20T10:36:16.740Z,77.13
2023-01-20T10:39:29.945Z,77.07
2023-01-20T10:42:33.826Z,77.01
2023-01-20T10:45:50.554Z,76.96
2023-01-20T10:49:18.808Z,76.88
2023-01-20T10:52:30.728Z,76.82
2023-01-20T10:55:48.792Z,76.66
2023-01-20T10:58:52.214Z,76.55
2023-01-20T11:02:11.600Z,76.46
2023-01-20T11:05:19.982Z,76.38
2023-01-20T11:08:28.123Z,76.34
2023-01-20T11:11:33.512Z,76.25
2023-01-20T11:14:37.071Z,76.20
2023-01-20T11:17:40.430Z,76.17
2023-01-20T11:20:53.745Z,76.17
2023-01-20T11:23:58.434Z,76.10
2023-01-20T11:27:10.430Z,76.08
2023-01-20T11:30:22.927Z,76.09
2023-01-20T11:33:26.881Z,76.08
2023-01-20T11:36:30.369Z,76.13
2023-01-20T11:39:37.135Z,75.98
2023-01-20T11:42:46.290Z,75.84
2023-01-20T11:46:13.412Z,75.78
2023-01-20T11:49:22.630Z,75.63
2023-01-20T11:52:25.914Z,75.61
2023-01-20T11:55:30.778Z,75.53
2023-01-20T11:58:57.838Z,75.32
2023-01-20T12:02:23.406Z,75.19
2023-01-20T12:05:50.131Z,75.12
2023-01-20T12:09:15.771Z,74.93
2023-01-20T12:12:37.824Z,74.93
2023-01-20T12:15:45.620Z,74.95
2023-01-20T12:19:02.108Z,74.88
2023-01-20T12:22:13.608Z,74.81
2023-01-20T12:25:22.664Z,74.88
2023-01-20T12:28:42.527Z,74.90
2023-01-20T12:31:49.726Z,74.91
2023-01-20T12:34:55.539Z,74.94
2023-01-20T12:38:07.940Z,75.01
2023-01-20T12:41:16.353Z,75.03
2023-01-20T12:44:33.628Z,75.10
2023-01-20T12:48:05.337Z,75.16
2023-01-20T12:51:15.046Z,75.22
2023-01-20T12:54:55.039Z,75.32
2023-01-20T12:58:43.386Z,75.39
2023-01-20T13:01:57.027Z,75.38
2023-01-20T13:05:37.954Z,75.41
2023-01-20T13:09:04.022Z,75.48
2023-01-20T13:12:27.292Z,75.55
2023-01-20T13:15:46.137Z,75.57
2023-01-20T13:19:19.435Z,75.63
2023-01-20T13:22:24.762Z,75.70
2023-01-20T13:25:28.786Z,75.75
2023-01-20T13:28:32.456Z,75.82
2023-01-20T13:31:39.028Z,75.90
2023-01-20T13:34:45.080Z,75.92
2023-01-20T13:38:00.562Z,75.94
2023-01-20T13:41:10.164Z,75.91
2023-01-20T13:44:41.473Z,75.88
2023-01-20T13:47:48.274Z,75.90
2023-01-20T13:50:54.079Z,75.89
2023-01-20T13:54:38.022Z,75.84
2023-01-20T13:57:43.704Z,75.74
2023-01-20T14:00:50.001Z,75.72
2023-01-20T14:04:05.729Z,75.81
2023-01-20T14:07:31.036Z,75.80
2023-01-20T14:10:35.073Z,75.69
2023-01-20T14:13:41.654Z,75.63
2023-01-20T14:16:44.975Z,75.62
2023-01-20T14:19:57.779Z,75.62
2023-01-20T14:23:31.164Z,75.62
2023-01-20T14:26:34.593Z,75.61
2023-01-20T14:29:37.922Z,75.63
2023-01-20T14:32:46.863Z,75.57
2023-01-20T14:35:50.368Z,75.53
2023-01-20T14:38:58.429Z,75.53
2023-01-20T14:42:01.986Z,75.56
2023-01-20T14:45:23.607Z,75.51
2023-01-20T14:48:34.372Z,75.50
2023-01-20T14:51:38.280Z,75.54
2023-01-20T14:54:48.664Z,75.53
2023-01-20T14:57:52.211Z,75.47
2023-01-20T15:01:01.875Z,75.42
2023-01-20T15:04:07.871Z,75.47
2023-01-20T15:07:19.428Z,75.51
2023-01-20T15:10:22.796Z,75.52
2023-01-20T15:13:29.937Z,75.52
2023-01-20T15:16:36.048Z,75.56
2023-01-20T15:19:46.722Z,75.63
2023-01-20T15:22:51.217Z,75.66
2023-01-20T15:25:54.527Z,75.65
2023-01-20T15:28:58.931Z,75.72
2023-01-20T15:32:09.748Z,75.73
2023-01-20T15:35:15.230Z,75.80
2023-01-20T15:38:18.553Z,75.81
2023-01-20T15:41:22.475Z,75.80
2023-01-20T15:44:26.890Z,75.84
2023-01-20T15:47:31.102Z,75.85
2023-01-20T15:50:34.646Z,75.85
2023-01-20T15:53:37.985Z,75.88
2023-01-20T15:56:43.580Z,75.88
2023-01-20T15:59:49.993Z,75.88
2023-01-20T16:02:53.441Z,75.87
2023-01-20T16:05:56.978Z,75.88
2023-01-20T16:09:03.525Z,75.84
2023-01-20T16:12:14.612Z,75.86
2023-01-20T16:15:18.401Z,75.87
2023-01-20T16:18:22.099Z,75.91
2023-01-20T16:21:25.396Z,75.92
2023-01-20T16:24:28.765Z,75.97
2023-01-20T16:27:31.970Z,75.95
2023-01-20T16:30:35.160Z,75.96
2023-01-20T16:33:38.381Z,75.97
2023-01-20T16:36:41.693Z,76.03
2023-01-20T16:39:44.965Z,76.05
2023-01-20T16:42:48.461Z,76.10
2023-01-20T16:45:54.528Z,76.18
2023-01-20T16:49:03.107Z,76.22
2023-01-20T16:52:07.039Z,76.25
2023-01-20T16:55:13.215Z,76.25
2023-01-20T16:58:16.792Z,76.32
2023-01-20T17:01:24.597Z,76.38
2023-01-20T17:04:29.514Z,76.42
2023-01-20T17:07:32.882Z,76.52
2023-01-20T17:10:36.147Z,76.57
2023-01-20T17:13:39.379Z,76.62
2023-01-20T17:16:42.741Z,76.71
2023-01-20T17:19:45.948Z,76.76
2023-01-20T17:22:49.194Z,76.82
2023-01-20T17:25:52.512Z,76.92
2023-01-20T17:28:58.124Z,76.98
2023-01-20T17:32:01.436Z,77.04
2023-01-20T17:35:05.043Z,77.15
2023-01-20T17:38:08.235Z,77.22
2023-01-20T17:41:12.797Z,77.34
2023-01-20T17:44:16.097Z,77.38
2023-01-20T17:47:19.288Z,77.43
2023-01-20T17:50:22.520Z,77.53
2023-01-20T17:53:28.896Z,77.61
2023-01-20T17:56:32.327Z,77.67
2023-01-20T17:59:36.464Z,77.62
2023-01-20T18:02:42.553Z,77.67
2023-01-20T18:05:46.127Z,77.74
2023-01-20T18:08:54.951Z,77.81
2023-01-20T18:11:58.179Z,77.89
2023-01-20T18:15:01.499Z,77.95
2023-01-20T18:18:04.763Z,78.10
2023-01-20T18:21:16.330Z,78.23
2023-01-20T18:24:19.709Z,78.29
2023-01-20T18:27:22.938Z,78.31
2023-01-20T18:30:26.111Z,78.31
2023-01-20T18:33:29.416Z,78.41
2023-01-20T18:36:35.267Z,78.49
2023-01-20T18:39:38.932Z,78.56
2023-01-20T18:42:45.151Z,78.65
2023-01-20T18:45:48.490Z,78.70
2023-01-20T18:48:53.460Z,78.73
2023-01-20T18:51:59.193Z,78.75
2023-01-20T18:55:02.511Z,78.82
2023-01-20T18:58:05.856Z,78.81
2023-01-20T19:01:13.327Z,78.84
2023-01-20T19:04:16.992Z,78.95
2023-01-20T19:07:21.051Z,78.97
2023-01-20T19:10:24.291Z,78.99
2023-01-20T19:13:27.920Z,78.99
2023-01-20T19:16:33.959Z,79.06
2023-01-20T19:19:37.281Z,79.13
2023-01-20T19:22:41.238Z,79.19
2023-01-20T19:25:44.728Z,79.24
2023-01-20T19:28:54.876Z,79.21
2023-01-20T19:31:58.241Z,79.27
2023-01-20T19:35:01.556Z,79.30
2023-01-20T19:38:04.758Z,79.30
2023-01-20T19:41:16.558Z,79.34
2023-01-20T19:44:20.169Z,79.29
2023-01-20T19:47:23.593Z,79.32
2023-01-20T19:50:26.791Z,79.33
2023-01-20T19:53:30.289Z,79.43
2023-01-20T19:56:35.454Z,79.45
2023-01-20T19:59:40.902Z,79.49
2023-01-20T20:02:44.996Z,79.54
2023-01-20T20:05:48.293Z,79.60
2023-01-20T20:08:52.933Z,79.64
2023-01-20T20:11:57.778Z,79.67
2023-01-20T20:15:00.969Z,79.70
2023-01-20T20:18:04.259Z,79.69
2023-01-20T20:21:08.422Z,79.73
2023-01-20T20:24:13.141Z,79.73
2023-01-20T20:27:16.392Z,79.69
2023-01-20T20:30:19.593Z,79.63
2023-01-20T20:33:24.323Z,79.65
2023-01-20T20:36:29.685Z,79.64
2023-01-20T20:39:32.947Z,79.55
2023-01-20T20:42:36.359Z,79.59
2023-01-20T20:45:39.656Z,79.60
2023-01-20T20:49:00.622Z,79.58
2023-01-20T20:52:03.998Z,79.62
2023-01-20T20:55:07.535Z,79.64
2023-01-20T20:58:11.078Z,79.66
2023-01-20T21:01:16.491Z,79.64
2023-01-20T21:04:19.744Z,79.66
2023-01-20T21:07:23.103Z,79.63
2023-01-20T21:10:26.726Z,79.64
2023-01-20T21:13:30.151Z,79.66
2023-01-20T21:16:34.481Z,79.67
2023-01-20T21:19:37.710Z,79.73
2023-01-20T21:22:40.935Z,79.76
2023-01-20T21:25:44.185Z,79.80
2023-01-20T21:28:50.711Z,79.78
2023-01-20T21:31:54.253Z,79.81
2023-01-20T21:35:02.036Z,79.85
2023-01-20T21:38:05.644Z,79.84
2023-01-20T21:41:10.412Z,79.83
2023-01-20T21:44:29.892Z,79.85
2023-01-20T21:47:33.417Z,79.83
2023-01-20T21:50:55.278Z,79.81
2023-01-20T21:53:58.437Z,79.90
2023-01-20T21:57:02.367Z,79.91
2023-01-20T22:00:08.748Z,79.92
2023-01-20T22:03:17.702Z,79.93
2023-01-20T22:06:20.940Z,79.93
2023-01-20T22:09:24.127Z,79.99
2023-01-20T22:12:27.410Z,80.01
2023-01-20T22:15:31.482Z,80.04
2023-01-20T22:18:34.894Z,80.05
2023-01-20T22:21:38.208Z,80.06
2023-01-20T22:24:41.735Z,80.06
2023-01-20T22:27:48.118Z,80.07
2023-01-20T22:30:51.493Z,80.03
2023-01-20T22:33:57.037Z,80.00
2023-01-20T22:37:00.764Z,80.00
2023-01-20T22:40:05.577Z,79.97
2023-01-20T22:43:08.828Z,79.98
2023-01-20T22:46:15.801Z,79.96
2023-01-20T22:49:19.124Z,79.97
2023-01-20T22:52:23.306Z,80.02
2023-01-20T22:55:26.493Z,80.06
2023-01-20T22:58:30.214Z,80.12
2023-01-20T23:01:35.573Z,80.13
2023-01-20T23:04:38.758Z,80.13
2023-01-20T23:07:41.973Z,80.17
2023-01-20T23:10:48.513Z,80.22
2023-01-20T23:13:52.514Z,80.24
2023-01-20T23:16:55.746Z,80.29
2023-01-20T23:19:59.660Z,80.32
2023-01-20T23:23:03.003Z,80.35
2023-01-20T23:26:17.253Z,80.35
2023-01-20T23:29:20.494Z,80.30
2023-01-20T23:32:23.993Z,80.33
2023-01-20T23:35:27.216Z,80.35
2023-01-20T23:38:30.435Z,80.41
2023-01-20T23:41:33.642Z,80.45
2023-01-20T23:44:36.882Z,80.45
2023-01-20T23:47:40.128Z,80.48
2023-01-20T23:50:43.494Z,80.47
2023-01-20T23:53:46.926Z,80.50
2023-01-20T23:56:50.161Z,80.50
2023-01-20T23:59:53.361Z,80.53
